createdAt,value
2023-05-03T00:00:16.576Z,13.50
2023-05-03T00:02:44.940Z,13.50
2023-05-03T00:05:15.324Z,13.50
2023-05-03T00:07:43.923Z,13.40
2023-05-03T00:10:13.457Z,13.40
2023-05-03T00:12:40.922Z,13.40
2023-05-03T00:15:09.065Z,13.40
2023-05-03T00:17:40.049Z,13.30
2023-05-03T00:20:08.260Z,13.40
2023-05-03T00:22:35.576Z,13.40
2023-05-03T00:25:03.210Z,13.40
2023-05-03T00:27:31.538Z,13.40
2023-05-03T00:29:58.930Z,13.40
2023-05-03T00:32:26.296Z,13.40
2023-05-03T00:34:55.152Z,13.30
2023-05-03T00:37:26.089Z,13.30
2023-05-03T00:39:53.889Z,13.30
2023-05-03T00:42:21.088Z,13.30
2023-05-03T00:44:48.197Z,13.30
2023-05-03T00:47:16.865Z,13.20
2023-05-03T00:49:45.979Z,13.30
2023-05-03T00:52:13.672Z,13.30
2023-05-03T00:54:41.007Z,13.30
2023-05-03T00:57:08.890Z,13.30
2023-05-03T00:59:37.285Z,13.30
2023-05-03T01:02:04.805Z,13.30
2023-05-03T01:04:32.185Z,13.30
2023-05-03T01:07:37.120Z,13.30
2023-05-03T01:10:31.457Z,13.30
2023-05-03T01:13:16.729Z,13.30
2023-05-03T01:16:00.046Z,13.20
2023-05-03T01:18:34.343Z,13.30
2023-05-03T01:21:03.327Z,13.30
2023-05-03T01:23:42.681Z,13.30
2023-05-03T01:26:20.813Z,13.30
2023-05-03T01:28:48.424Z,13.30
2023-05-03T01:31:22.006Z,13.30
2023-05-03T01:34:14.860Z,13.10
2023-05-03T01:36:44.630Z,13.10
2023-05-03T01:39:19.736Z,13.20
2023-05-03T01:41:51.267Z,13.10
2023-05-03T01:44:19.923Z,13.10
2023-05-03T01:46:47.734Z,13.10
2023-05-03T01:49:14.838Z,13.10
2023-05-03T01:51:42.080Z,13.00
2023-05-03T01:54:10.316Z,13.00
2023-05-03T01:56:37.451Z,12.90
2023-05-03T01:59:05.171Z,12.90
2023-05-03T02:01:33.564Z,12.90
2023-05-03T02:04:01.004Z,12.80
2023-05-03T02:06:28.445Z,12.80
2023-05-03T02:08:56.317Z,12.80
2023-05-03T02:11:23.778Z,12.80
2023-05-03T02:13:51.333Z,12.80
2023-05-03T02:16:20.067Z,12.80
2023-05-03T02:18:47.468Z,12.70
2023-05-03T02:21:14.729Z,12.70
2023-05-03T02:23:43.433Z,12.70
2023-05-03T02:26:10.758Z,12.70
2023-05-03T02:28:37.863Z,12.70
2023-05-03T02:31:06.445Z,12.70
2023-05-03T02:33:33.831Z,12.60
2023-05-03T02:36:01.737Z,12.70
2023-05-03T02:38:28.993Z,12.70
2023-05-03T02:40:56.155Z,12.70
2023-05-03T02:43:23.736Z,12.70
2023-05-03T02:45:51.049Z,12.60
2023-05-03T02:48:19.715Z,12.60
2023-05-03T02:50:48.837Z,12.50
2023-05-03T02:53:16.595Z,12.60
2023-05-03T02:55:43.951Z,12.50
2023-05-03T02:58:11.108Z,12.50
2023-05-03T03:00:38.251Z,12.60
2023-05-03T03:03:05.562Z,12.50
2023-05-03T03:05:33.273Z,12.50
2023-05-03T03:08:02.060Z,12.50
2023-05-03T03:10:33.751Z,12.50
2023-05-03T03:13:02.296Z,12.50
2023-05-03T03:15:30.472Z,12.50
2023-05-03T03:17:58.438Z,12.50
2023-05-03T03:20:25.695Z,12.50
2023-05-03T03:22:53.128Z,12.50
2023-05-03T03:25:21.028Z,12.50
2023-05-03T03:27:48.850Z,12.50
2023-05-03T03:30:15.994Z,12.50
2023-05-03T03:32:43.359Z,12.50
2023-05-03T03:35:10.828Z,12.50
2023-05-03T03:37:39.953Z,12.50
2023-05-03T03:40:08.372Z,12.50
2023-05-03T03:42:35.803Z,12.50
2023-05-03T03:45:03.235Z,12.50
2023-05-03T03:47:30.378Z,12.50
2023-05-03T03:49:57.552Z,12.50
2023-05-03T03:52:25.000Z,12.50
2023-05-03T03:54:52.740Z,12.50
2023-05-03T03:57:20.246Z,12.60
2023-05-03T03:59:47.383Z,12.60
2023-05-03T04:02:14.583Z,12.60
2023-05-03T04:04:42.193Z,12.60
2023-05-03T04:07:09.717Z,12.70
2023-05-03T04:09:37.128Z,12.70
2023-05-03T04:12:04.863Z,12.70
2023-05-03T04:14:33.333Z,12.70
2023-05-03T04:17:01.986Z,12.70
2023-05-03T04:19:29.267Z,12.70
2023-05-03T04:21:59.113Z,12.70
2023-05-03T04:24:27.918Z,12.70
2023-05-03T04:26:56.313Z,12.80
2023-05-03T04:29:23.581Z,12.80
2023-05-03T04:31:50.960Z,12.90
2023-05-03T04:34:19.070Z,12.90
2023-05-03T04:36:49.738Z,12.90
2023-05-03T04:39:16.831Z,13.00
2023-05-03T04:41:44.479Z,13.00
2023-05-03T04:44:11.911Z,13.00
2023-05-03T04:46:41.365Z,13.10
2023-05-03T04:49:17.342Z,13.10
2023-05-03T04:51:44.582Z,13.20
2023-05-03T04:54:11.663Z,13.20
2023-05-03T04:56:38.896Z,13.30
2023-05-03T04:59:05.963Z,13.40
2023-05-03T05:01:33.203Z,13.40
2023-05-03T05:04:00.601Z,13.40
2023-05-03T05:06:28.002Z,13.50
2023-05-03T05:08:57.477Z,13.50
2023-05-03T05:11:24.594Z,13.50
2023-05-03T05:13:51.945Z,13.50
2023-05-03T05:16:19.613Z,13.50
2023-05-03T05:18:47.012Z,13.60
2023-05-03T05:21:16.230Z,13.60
2023-05-03T05:23:43.425Z,13.60
2023-05-03T05:26:13.166Z,13.60
2023-05-03T05:28:40.372Z,13.60
2023-05-03T05:31:08.074Z,13.70
2023-05-03T05:33:36.611Z,13.60
2023-05-03T05:36:05.035Z,13.60
2023-05-03T05:38:32.223Z,13.70
2023-05-03T05:40:59.507Z,13.70
2023-05-03T05:43:26.704Z,13.70
2023-05-03T05:45:55.969Z,13.70
2023-05-03T05:48:23.293Z,13.70
2023-05-03T05:50:50.474Z,13.80
2023-05-03T05:53:18.039Z,13.80
2023-05-03T05:55:45.648Z,13.80
2023-05-03T05:58:13.968Z,13.90
2023-05-03T06:00:43.559Z,13.90
2023-05-03T06:03:11.989Z,13.90
2023-05-03T06:05:40.109Z,13.90
2023-05-03T06:08:09.196Z,14.00
2023-05-03T06:10:36.524Z,14.10
2023-05-03T06:13:06.824Z,14.20
2023-05-03T06:15:34.230Z,14.30
2023-05-03T06:18:04.808Z,14.30
2023-05-03T06:20:34.571Z,14.40
2023-05-03T06:23:04.582Z,14.50
2023-05-03T06:25:32.760Z,14.70
2023-05-03T06:27:59.986Z,14.80
2023-05-03T06:30:28.774Z,14.90
2023-05-03T06:32:57.600Z,15.00
2023-05-03T06:35:25.043Z,15.00
2023-05-03T06:37:59.558Z,15.10
2023-05-03T06:40:27.664Z,15.10
2023-05-03T06:42:56.011Z,15.20
2023-05-03T06:45:31.936Z,15.00
2023-05-03T06:48:00.580Z,15.10
2023-05-03T06:50:27.865Z,15.10
2023-05-03T06:52:55.049Z,15.10
2023-05-03T06:55:22.458Z,15.20
2023-05-03T06:57:49.883Z,15.30
2023-05-03T07:00:17.429Z,15.50
2023-05-03T07:02:44.803Z,15.70
2023-05-03T07:05:15.750Z,15.70
2023-05-03T07:07:44.079Z,15.80
2023-05-03T07:10:15.865Z,15.90
2023-05-03T07:12:46.017Z,16.00
2023-05-03T07:15:13.514Z,16.10
2023-05-03T07:17:41.063Z,16.30
2023-05-03T07:20:08.591Z,16.50
2023-05-03T07:22:35.756Z,16.60
2023-05-03T07:25:03.186Z,16.80
2023-05-03T07:27:30.392Z,16.90
2023-05-03T07:29:58.517Z,16.90
2023-05-03T07:32:28.519Z,16.90
2023-05-03T07:34:55.797Z,16.90
2023-05-03T07:37:23.466Z,16.70
2023-05-03T07:39:51.096Z,16.60
2023-05-03T07:42:18.818Z,16.40
2023-05-03T07:44:46.055Z,16.40
2023-05-03T07:47:15.318Z,16.40
2023-05-03T07:49:43.970Z,16.40
2023-05-03T07:52:11.364Z,16.50
2023-05-03T07:54:39.100Z,16.60
2023-05-03T07:57:09.885Z,16.60
2023-05-03T07:59:39.546Z,16.60
2023-05-03T08:02:07.843Z,16.80
2023-05-03T08:04:57.000Z,17.00
2023-05-03T08:07:28.014Z,17.20
2023-05-03T08:09:57.043Z,17.40
2023-05-03T08:12:27.731Z,17.60
2023-05-03T08:14:56.594Z,17.70
2023-05-03T08:17:26.220Z,17.90
2023-05-03T08:19:56.446Z,18.10
2023-05-03T08:22:26.678Z,18.20
2023-05-03T08:24:56.538Z,18.10
2023-05-03T08:27:26.374Z,17.90
2023-05-03T08:29:56.417Z,17.80
2023-05-03T08:32:25.223Z,17.80
2023-05-03T08:34:54.590Z,17.70
2023-05-03T08:37:27.580Z,17.60
2023-05-03T08:39:55.451Z,17.60
2023-05-03T08:42:25.889Z,17.50
2023-05-03T08:47:38.539Z,17.50
2023-05-03T08:50:10.889Z,17.40
2023-05-03T08:52:43.473Z,17.50
2023-05-03T08:55:13.918Z,17.60
2023-05-03T08:57:41.703Z,17.80
2023-05-03T09:00:11.884Z,17.90
2023-05-03T09:02:44.592Z,18.00
2023-05-03T09:05:19.472Z,18.20
2023-05-03T09:08:02.758Z,18.30
2023-05-03T09:10:34.126Z,18.50
2023-05-03T09:13:04.284Z,18.70
2023-05-03T09:15:31.866Z,18.80
2023-05-03T09:18:11.753Z,18.80
2023-05-03T09:20:52.297Z,18.90
2023-05-03T09:23:31.873Z,18.80
2023-05-03T09:26:00.844Z,19.00
2023-05-03T09:28:36.784Z,19.10
2023-05-03T09:31:10.838Z,19.20
2023-05-03T09:33:42.047Z,19.30
2023-05-03T09:36:09.584Z,19.50
2023-05-03T09:38:37.035Z,19.70
2023-05-03T09:41:11.444Z,19.80
2023-05-03T09:43:55.655Z,19.80
2023-05-03T09:46:26.339Z,19.70
2023-05-03T09:48:57.558Z,19.60
2023-05-03T09:51:25.100Z,19.80
2023-05-03T09:53:56.910Z,19.80
2023-05-03T09:56:32.691Z,20.00
2023-05-03T09:59:03.499Z,20.00
2023-05-03T10:01:38.714Z,20.10
2023-05-03T10:04:13.504Z,20.40
2023-05-03T10:06:45.673Z,20.40
2023-05-03T10:09:33.313Z,20.40
2023-05-03T10:12:10.089Z,20.30
2023-05-03T10:14:41.785Z,20.40
2023-05-03T10:17:46.213Z,20.60
2023-05-03T10:20:44.472Z,20.80
2023-05-03T10:23:15.798Z,20.90
2023-05-03T10:26:11.408Z,20.70
2023-05-03T10:28:39.114Z,20.60
2023-05-03T10:31:06.578Z,20.50
2023-05-03T10:33:36.703Z,20.50
2023-05-03T10:36:16.349Z,20.40
2023-05-03T10:38:43.571Z,20.40
2023-05-03T10:41:11.088Z,20.50
2023-05-03T10:43:43.539Z,20.50
2023-05-03T10:46:33.090Z,20.50
2023-05-03T10:49:20.461Z,20.70
2023-05-03T10:51:51.027Z,20.50
2023-05-03T10:54:21.983Z,20.60
2023-05-03T10:56:51.140Z,20.70
2023-05-03T10:59:22.069Z,20.70
2023-05-03T11:02:13.677Z,20.80
2023-05-03T11:04:45.747Z,20.60
2023-05-03T11:07:24.781Z,20.70
2023-05-03T11:09:52.238Z,20.70
2023-05-03T11:12:20.610Z,20.80
2023-05-03T11:14:52.206Z,20.60
2023-05-03T11:17:19.517Z,20.50
2023-05-03T11:19:51.038Z,20.40
2023-05-03T11:22:21.287Z,20.20
2023-05-03T11:24:53.153Z,20.40
2023-05-03T11:27:30.140Z,20.60
2023-05-03T11:30:02.545Z,20.80
2023-05-03T11:32:30.587Z,20.70
2023-05-03T11:35:04.036Z,20.60
2023-05-03T11:37:36.573Z,20.50
2023-05-03T11:40:06.673Z,20.40
2023-05-03T11:42:36.240Z,20.40
2023-05-03T11:45:04.514Z,20.50
2023-05-03T11:47:39.806Z,20.60
2023-05-03T11:50:07.381Z,20.40
2023-05-03T11:52:37.513Z,20.50
2023-05-03T11:55:07.121Z,20.60
2023-05-03T11:57:34.261Z,20.80
2023-05-03T12:00:17.757Z,21.10
2023-05-03T12:02:49.030Z,21.30
2023-05-03T12:05:20.832Z,21.40
2023-05-03T12:07:48.471Z,21.40
2023-05-03T12:10:23.538Z,21.20
2023-05-03T12:12:57.414Z,21.40
2023-05-03T12:15:33.948Z,21.40
2023-05-03T12:18:04.835Z,21.10
2023-05-03T12:21:28.172Z,21.00
2023-05-03T12:23:26.783Z,21.00
2023-05-03T12:25:58.111Z,21.00
2023-05-03T12:28:28.082Z,20.90
2023-05-03T12:30:57.631Z,20.80
2023-05-03T12:33:43.805Z,20.90
2023-05-03T12:36:17.006Z,21.00
2023-05-03T12:39:15.951Z,21.00
2023-05-03T12:44:17.282Z,20.90
2023-05-03T12:46:45.648Z,20.90
2023-05-03T12:49:15.524Z,20.90
2023-05-03T12:51:53.496Z,20.70
2023-05-03T12:54:27.916Z,20.50
2023-05-03T12:59:42.003Z,20.50
2023-05-03T13:04:57.860Z,20.70
2023-05-03T13:07:39.485Z,20.60
2023-05-03T13:12:41.038Z,20.80
2023-05-03T13:15:09.198Z,20.90
2023-05-03T13:17:36.328Z,20.70
2023-05-03T13:20:07.410Z,20.60
2023-05-03T13:22:34.858Z,20.50
2023-05-03T13:25:09.879Z,20.50
2023-05-03T13:27:37.102Z,20.40
2023-05-03T13:30:05.203Z,20.20
2023-05-03T13:32:33.398Z,20.20
2023-05-03T13:35:11.705Z,20.30
2023-05-03T13:37:39.267Z,20.30
2023-05-03T13:40:08.126Z,20.40
2023-05-03T13:42:35.720Z,20.50
2023-05-03T13:45:06.804Z,20.30
2023-05-03T13:48:05.316Z,20.20
2023-05-03T13:50:23.594Z,20.20
2023-05-03T13:52:50.892Z,20.00
2023-05-03T13:55:22.810Z,19.90
2023-05-03T13:57:51.551Z,19.80
2023-05-03T14:00:20.899Z,19.90
2023-05-03T14:02:48.528Z,19.90
2023-05-03T14:05:17.630Z,19.90
2023-05-03T14:07:46.092Z,19.90
2023-05-03T14:10:13.474Z,19.80
2023-05-03T14:12:42.467Z,19.60
2023-05-03T14:15:11.903Z,19.60
2023-05-03T14:17:39.425Z,19.60
2023-05-03T14:20:09.425Z,19.40
2023-05-03T14:22:38.411Z,19.30
2023-05-03T14:25:06.008Z,19.20
2023-05-03T14:27:33.394Z,19.20
2023-05-03T14:30:00.902Z,19.10
2023-05-03T14:32:28.274Z,19.10
2023-05-03T14:34:57.224Z,19.20
2023-05-03T14:37:24.497Z,19.00
2023-05-03T14:39:51.991Z,18.90
2023-05-03T14:42:19.107Z,18.80
2023-05-03T14:44:46.868Z,18.90
2023-05-03T14:47:14.187Z,18.90
2023-05-03T14:49:41.677Z,19.00
2023-05-03T14:52:09.430Z,19.00
2023-05-03T14:54:37.528Z,19.00
2023-05-03T14:57:05.027Z,19.00
2023-05-03T14:59:33.537Z,19.10
2023-05-03T15:02:02.940Z,19.20
2023-05-03T15:04:31.135Z,19.30
2023-05-03T15:07:02.970Z,19.30
2023-05-03T15:09:33.914Z,19.30
2023-05-03T15:12:02.123Z,19.30
2023-05-03T15:14:30.891Z,19.30
2023-05-03T15:16:58.646Z,19.40
2023-05-03T15:19:26.910Z,19.40
2023-05-03T15:21:54.771Z,19.50
2023-05-03T15:24:22.322Z,19.40
2023-05-03T15:26:49.704Z,19.30
2023-05-03T15:29:18.152Z,19.20
2023-05-03T15:31:46.343Z,19.20
2023-05-03T15:34:16.605Z,19.20
2023-05-03T15:36:44.005Z,19.10
2023-05-03T15:39:14.520Z,19.10
2023-05-03T15:42:21.251Z,19.20
2023-05-03T15:44:52.643Z,19.20
2023-05-03T15:47:20.320Z,19.20
2023-05-03T15:49:47.465Z,19.20
2023-05-03T15:52:14.754Z,19.20
2023-05-03T15:54:43.491Z,19.10
2023-05-03T15:57:10.741Z,19.00
2023-05-03T15:59:44.856Z,19.00
2023-05-03T16:05:33.842Z,19.00
2023-05-03T16:08:36.964Z,18.80
2023-05-03T16:11:09.468Z,18.60
2023-05-03T16:13:36.976Z,18.60
2023-05-03T16:16:04.401Z,18.60
2023-05-03T16:18:36.364Z,18.50
2023-05-03T16:21:03.888Z,18.40
2023-05-03T16:23:31.126Z,18.30
2023-05-03T16:26:17.049Z,18.20
2023-05-03T16:28:44.576Z,18.20
2023-05-03T16:31:13.450Z,18.20
2023-05-03T16:33:42.313Z,18.10
2023-05-03T16:36:30.574Z,18.10
2023-05-03T16:39:06.249Z,18.10
2023-05-03T16:41:34.713Z,18.10
2023-05-03T16:44:04.867Z,18.10
2023-05-03T16:46:36.787Z,18.10
2023-05-03T16:49:05.318Z,18.00
2023-05-03T16:51:33.659Z,18.00
2023-05-03T16:54:04.296Z,18.10
2023-05-03T16:56:32.274Z,18.10
2023-05-03T17:02:22.010Z,18.10
2023-05-03T17:05:01.133Z,18.00
2023-05-03T17:07:28.481Z,17.90
2023-05-03T17:09:57.406Z,17.90
2023-05-03T17:12:27.336Z,17.80
2023-05-03T17:14:55.017Z,17.80
2023-05-03T17:17:22.527Z,17.80
2023-05-03T17:19:49.697Z,17.60
2023-05-03T17:22:17.267Z,17.60
2023-05-03T17:24:47.559Z,17.50
2023-05-03T17:27:14.762Z,17.50
2023-05-03T17:29:42.018Z,17.50
2023-05-03T17:32:09.646Z,17.40
2023-05-03T17:34:39.281Z,17.30
2023-05-03T17:37:07.700Z,17.10
2023-05-03T17:39:35.946Z,17.00
2023-05-03T17:42:04.581Z,17.00
2023-05-03T17:44:35.363Z,16.90
2023-05-03T17:47:02.582Z,16.80
2023-05-03T17:49:52.068Z,16.70
2023-05-03T17:52:20.958Z,16.60
2023-05-03T17:54:48.196Z,16.50
2023-05-03T17:57:17.274Z,16.40
2023-05-03T17:59:45.856Z,16.30
2023-05-03T18:02:15.580Z,16.20
2023-05-03T18:04:47.323Z,16.10
2023-05-03T18:07:17.676Z,16.10
2023-05-03T18:09:49.255Z,16.00
2023-05-03T18:12:17.428Z,15.90
2023-05-03T18:14:46.780Z,15.90
2023-05-03T18:17:19.703Z,15.70
2023-05-03T18:19:46.921Z,15.60
2023-05-03T18:22:15.811Z,15.60
2023-05-03T18:24:43.300Z,15.40
2023-05-03T18:27:16.388Z,15.40
2023-05-03T18:29:43.593Z,15.30
2023-05-03T18:32:11.769Z,15.20
2023-05-03T18:34:39.034Z,15.20
2023-05-03T18:37:06.532Z,15.20
2023-05-03T18:39:35.478Z,15.10
2023-05-03T18:42:02.795Z,15.10
2023-05-03T18:44:33.966Z,15.00
2023-05-03T18:47:01.702Z,15.00
2023-05-03T18:49:28.893Z,15.00
2023-05-03T18:51:56.192Z,14.90
2023-05-03T18:54:23.631Z,14.80
2023-05-03T18:56:50.910Z,14.80
2023-05-03T18:59:18.714Z,14.70
2023-05-03T19:01:46.484Z,14.70
2023-05-03T19:04:14.844Z,14.60
2023-05-03T19:06:42.516Z,14.50
2023-05-03T19:09:13.605Z,14.40
2023-05-03T19:11:42.793Z,14.40
2023-05-03T19:14:10.027Z,14.30
2023-05-03T19:16:37.971Z,14.30
2023-05-03T19:19:05.230Z,14.30
2023-05-03T19:21:32.856Z,14.20
2023-05-03T19:24:00.147Z,14.20
2023-05-03T19:26:27.294Z,14.20
2023-05-03T19:28:54.558Z,14.20
2023-05-03T19:31:21.843Z,14.10
2023-05-03T19:33:51.718Z,14.10
2023-05-03T19:36:18.841Z,14.00
2023-05-03T19:38:45.996Z,14.00
2023-05-03T19:41:13.137Z,13.90
2023-05-03T19:43:41.014Z,13.90
2023-05-03T19:46:08.971Z,13.90
2023-05-03T19:48:42.593Z,13.80
2023-05-03T19:51:15.846Z,13.70
2023-05-03T19:53:43.146Z,13.60
2023-05-03T19:56:13.424Z,13.60
2023-05-03T19:58:41.222Z,13.60
2023-05-03T20:01:09.090Z,13.50
2023-05-03T20:03:38.053Z,13.40
2023-05-03T20:06:08.022Z,13.40
2023-05-03T20:08:36.265Z,13.30
2023-05-03T20:11:08.000Z,13.30
2023-05-03T20:13:35.282Z,13.30
2023-05-03T20:16:04.989Z,13.20
2023-05-03T20:18:32.301Z,13.20
2023-05-03T20:21:00.536Z,13.20
2023-05-03T20:23:27.745Z,13.10
2023-05-03T20:25:57.110Z,13.10
2023-05-03T20:28:27.640Z,13.00
2023-05-03T20:30:58.624Z,13.00
2023-05-03T20:33:25.968Z,13.00
2023-05-03T20:35:54.388Z,12.90
2023-05-03T20:38:21.835Z,12.90
2023-05-03T20:40:50.143Z,12.80
2023-05-03T20:43:17.596Z,12.80
2023-05-03T20:45:47.867Z,12.80
2023-05-03T20:48:16.251Z,12.80
2023-05-03T20:50:44.010Z,12.70
2023-05-03T20:53:13.106Z,12.70
2023-05-03T20:55:41.610Z,12.60
2023-05-03T20:58:12.542Z,12.60
2023-05-03T21:00:40.971Z,12.60
2023-05-03T21:03:08.155Z,12.60
2023-05-03T21:05:41.988Z,12.50
2023-05-03T21:08:09.194Z,12.40
2023-05-03T21:10:36.307Z,12.40
2023-05-03T21:13:03.809Z,12.40
2023-05-03T21:15:31.038Z,12.40
2023-05-03T21:18:00.705Z,12.40
2023-05-03T21:20:27.810Z,12.40
2023-05-03T21:22:55.259Z,12.40
2023-05-03T21:25:22.701Z,12.40
2023-05-03T21:27:49.817Z,12.40
2023-05-03T21:30:16.936Z,12.40
2023-05-03T21:32:44.879Z,12.40
2023-05-03T21:35:12.197Z,12.30
2023-05-03T21:37:39.336Z,12.30
2023-05-03T21:40:07.823Z,12.30
2023-05-03T21:42:35.063Z,12.30
2023-05-03T21:45:09.726Z,12.20
2023-05-03T21:47:38.235Z,12.20
2023-05-03T21:50:12.296Z,12.10
2023-05-03T21:52:39.536Z,12.10
2023-05-03T21:55:07.245Z,12.00
2023-05-03T21:57:35.569Z,12.00
2023-05-03T22:00:05.286Z,12.00
2023-05-03T22:02:32.873Z,11.90
2023-05-03T22:05:00.317Z,11.90
2023-05-03T22:07:27.847Z,11.90
2023-05-03T22:09:55.130Z,12.00
2023-05-03T22:12:24.797Z,12.00
2023-05-03T22:14:53.217Z,12.10
2023-05-03T22:17:21.170Z,12.10
2023-05-03T22:19:50.397Z,12.10
2023-05-03T22:22:17.667Z,12.20
2023-05-03T22:24:44.883Z,12.20
2023-05-03T22:27:18.993Z,12.10
2023-05-03T22:29:46.542Z,12.10
2023-05-03T22:32:14.381Z,12.00
2023-05-03T22:34:41.569Z,11.90
2023-05-03T22:37:08.663Z,11.80
2023-05-03T22:39:35.871Z,11.70
2023-05-03T22:42:03.436Z,11.70
2023-05-03T22:44:33.590Z,11.60
2023-05-03T22:47:02.127Z,11.60
2023-05-03T22:49:29.455Z,11.60
2023-05-03T22:51:56.572Z,11.50
2023-05-03T22:54:25.802Z,11.50
2023-05-03T22:56:54.701Z,11.40
2023-05-03T22:59:21.977Z,11.30
2023-05-03T23:01:49.649Z,11.20
2023-05-03T23:04:17.051Z,11.20
2023-05-03T23:06:44.867Z,11.10
2023-05-03T23:09:13.504Z,11.10
2023-05-03T23:11:40.646Z,11.00
2023-05-03T23:14:07.782Z,10.90
2023-05-03T23:16:34.948Z,10.90
2023-05-03T23:19:02.209Z,10.70
2023-05-03T23:21:29.346Z,10.70
2023-05-03T23:23:56.760Z,10.60
2023-05-03T23:26:23.842Z,10.60
2023-05-03T23:28:51.999Z,10.40
2023-05-03T23:31:19.462Z,10.40
2023-05-03T23:33:46.914Z,10.40
2023-05-03T23:36:14.477Z,10.30
2023-05-03T23:38:41.835Z,10.30
2023-05-03T23:41:09.237Z,10.30
2023-05-03T23:43:38.988Z,10.20
2023-05-03T23:46:06.211Z,10.20
2023-05-03T23:48:33.612Z,10.10
2023-05-03T23:51:00.786Z,10.20
2023-05-03T23:53:29.426Z,10.10
2023-05-03T23:55:56.776Z,10.10
2023-05-03T23:58:23.896Z,10.10
